Time;durP1;ratioP1;P1;durP2;ratioP2;P2;SDS_P1;SDS_P2;PMS_P1;PMS_P2;Temp;Humidity;BMP_temperature;BMP_pressure;BME280_temperature;BME280_humidity;BME280_pressure;Samples;Min_cycle;Max_cycle;Signal;HPM_P1;HPM_P2
2022/07/04 00:00:11;;;;;;;6.72;3.63;;;13.60;99.90;;;;;;5059511;28;20052;-78
2022/07/04 00:02:40;;;;;;;8.20;3.70;;;13.60;99.90;;;;;;5075995;28;20047;-78
2022/07/04 00:05:10;;;;;;;6.03;3.73;;;13.60;99.90;;;;;;5076330;28;20118;-79
2022/07/04 00:07:36;;;;;;;5.28;3.10;;;13.50;99.90;;;;;;5056041;28;20137;-79
2022/07/04 00:10:03;;;;;;;7.18;3.60;;;13.60;99.90;;;;;;5058762;28;20049;-79
2022/07/04 00:12:29;;;;;;;6.22;3.63;;;13.50;99.90;;;;;;5075805;28;20041;-78
2022/07/04 00:14:55;;;;;;;6.07;3.35;;;13.50;99.90;;;;;;5075329;28;20046;-79
2022/07/04 00:17:20;;;;;;;3.73;3.37;;;13.40;99.90;;;;;;5076272;28;20076;-79
2022/07/04 00:19:46;;;;;;;7.18;4.00;;;13.40;99.90;;;;;;5067293;28;20044;-79
2022/07/04 00:22:12;;;;;;;4.10;3.33;;;13.40;99.90;;;;;;5066386;28;20049;-79
2022/07/04 00:24:37;;;;;;;3.40;3.10;;;13.40;99.90;;;;;;5053190;28;20073;-79
2022/07/04 00:27:03;;;;;;;5.13;2.97;;;13.40;99.90;;;;;;5050878;28;20504;-79
2022/07/04 00:29:29;;;;;;;4.30;3.10;;;13.30;99.90;;;;;;5070254;28;20076;-78
2022/07/04 00:31:55;;;;;;;4.90;3.22;;;13.30;99.90;;;;;;5066215;28;20428;-79
2022/07/04 00:34:21;;;;;;;4.90;3.40;;;13.30;99.90;;;;;;5058754;28;20048;-79
2022/07/04 00:36:46;;;;;;;4.43;3.50;;;13.30;99.90;;;;;;5072817;28;20539;-79
2022/07/04 00:39:12;;;;;;;4.82;3.15;;;13.20;99.90;;;;;;5074988;28;20807;-78
2022/07/04 00:41:38;;;;;;;6.73;3.63;;;13.30;99.90;;;;;;5075503;28;20032;-78
2022/07/04 00:44:09;;;;;;;6.32;3.22;;;13.30;99.90;;;;;;5070385;28;20084;-79
2022/07/04 00:46:35;;;;;;;4.47;3.20;;;13.20;99.90;;;;;;5075971;28;20059;-79
2022/07/04 00:49:04;;;;;;;3.77;3.47;;;13.20;99.90;;;;;;5074365;28;20048;-79
2022/07/04 00:51:30;;;;;;;4.50;3.28;;;13.20;99.90;;;;;;5064116;28;20043;-79
2022/07/04 00:53:56;;;;;;;5.03;3.20;;;13.20;99.90;;;;;;5074067;28;20036;-79
2022/07/04 00:56:23;;;;;;;4.80;3.45;;;13.20;99.90;;;;;;5071562;28;20048;-79
2022/07/04 00:58:50;;;;;;;8.68;3.42;;;13.20;99.90;;;;;;5061026;28;20052;-79
2022/07/04 01:01:16;;;;;;;7.20;3.42;;;13.10;99.90;;;;;;5071794;28;20380;-79
2022/07/04 01:03:43;;;;;;;4.70;3.20;;;13.10;99.90;;;;;;5060232;28;20387;-78
2022/07/04 01:06:09;;;;;;;4.00;3.40;;;13.00;99.90;;;;;;5067985;28;20077;-79
2022/07/04 01:08:40;;;;;;;3.83;3.23;;;13.10;99.90;;;;;;5070060;28;20040;-79
2022/07/04 01:11:06;;;;;;;6.57;3.05;;;13.00;99.90;;;;;;5074308;28;20044;-79
2022/07/04 01:13:32;;;;;;;5.23;3.63;;;13.00;99.90;;;;;;5073836;28;20091;-78
2022/07/04 01:15:58;;;;;;;3.83;3.00;;;13.00;99.90;;;;;;5071405;28;20223;-79
2022/07/04 01:18:24;;;;;;;5.37;3.50;;;13.00;99.90;;;;;;5068333;28;20037;-78
2022/07/04 01:20:50;;;;;;;4.37;3.77;;;13.00;99.90;;;;;;5057650;28;20041;-79
2022/07/04 01:23:16;;;;;;;4.93;3.80;;;12.90;99.90;;;;;;5073623;28;20051;-79
2022/07/04 01:25:43;;;;;;;6.17;3.60;;;13.00;99.90;;;;;;5075293;28;20098;-79
2022/07/04 01:28:09;;;;;;;5.93;3.43;;;13.00;99.90;;;;;;5075631;28;20048;-79
2022/07/04 01:30:37;;;;;;;5.73;3.43;;;12.90;99.90;;;;;;5057104;28;20056;-78
2022/07/04 01:33:03;;;;;;;5.23;3.63;;;12.90;99.90;;;;;;5065776;28;20052;-79
2022/07/04 01:35:30;;;;;;;4.33;3.80;;;12.90;99.90;;;;;;5067995;28;20068;-78
2022/07/04 01:37:56;;;;;;;9.33;3.90;;;12.90;99.90;;;;;;5068668;28;20066;-79
2022/07/04 01:40:21;;;;;;;3.93;3.50;;;12.80;99.90;;;;;;5074366;28;20673;-78
2022/07/04 01:42:48;;;;;;;5.67;4.03;;;12.80;99.90;;;;;;5064376;28;20179;-79
2022/07/04 01:45:13;;;;;;;5.17;3.60;;;12.80;99.90;;;;;;5058932;28;20108;-78
2022/07/04 01:47:40;;;;;;;7.90;3.50;;;12.70;99.90;;;;;;5070631;28;20079;-78
2022/07/04 01:50:08;;;;;;;4.25;3.20;;;12.70;99.90;;;;;;5073702;28;20107;-77
2022/07/04 01:52:33;;;;;;;5.77;3.60;;;12.70;99.90;;;;;;5071751;28;20108;-78
2022/07/04 01:54:59;;;;;;;4.97;3.50;;;12.60;99.90;;;;;;5055268;28;20098;-78
2022/07/04 01:57:25;;;;;;;5.13;3.93;;;12.60;99.90;;;;;;5063152;28;20055;-79
2022/07/04 02:02:36;;;;;;;5.27;4.37;;;12.60;99.90;;;;;;5071006;28;20049;-79
2022/07/04 02:05:01;;;;;;;6.47;4.13;;;12.60;99.90;;;;;;5074426;28;20048;-79
2022/07/04 02:07:27;;;;;;;5.20;4.70;;;12.50;99.90;;;;;;5074165;28;20104;-79
2022/07/04 02:09:53;;;;;;;4.70;4.27;;;12.60;99.90;;;;;;5056400;28;20043;-79
2022/07/04 02:15:03;;;;;;;5.00;4.50;;;12.60;99.90;;;;;;5069849;28;20061;-80
2022/07/04 02:17:29;;;;;;;5.87;5.30;;;12.50;99.90;;;;;;5041156;28;20119;-80
2022/07/04 02:19:55;;;;;;;5.57;5.07;;;12.50;99.90;;;;;;5068251;28;20087;-79
2022/07/04 02:22:21;;;;;;;6.63;5.57;;;12.50;99.90;;;;;;5040037;28;20037;-79
2022/07/04 02:24:46;;;;;;;5.27;4.67;;;12.50;99.90;;;;;;5050249;28;20464;-77
2022/07/04 02:27:12;;;;;;;6.57;5.30;;;12.50;99.90;;;;;;5049703;28;20118;-79
2022/07/04 02:29:38;;;;;;;6.50;5.47;;;12.50;99.90;;;;;;5073503;28;20140;-79
2022/07/04 02:32:04;;;;;;;6.10;5.50;;;12.50;99.90;;;;;;5072129;28;20055;-79
2022/07/04 02:34:30;;;;;;;7.27;5.93;;;12.50;99.90;;;;;;5040705;28;20060;-79
2022/07/04 02:36:56;;;;;;;6.43;5.80;;;12.50;99.90;;;;;;5073465;28;20101;-79
2022/07/04 02:39:22;;;;;;;7.07;5.53;;;12.50;99.90;;;;;;5073611;28;20131;-79
2022/07/04 02:41:48;;;;;;;6.77;5.63;;;12.50;99.90;;;;;;5073894;28;20052;-79
2022/07/04 02:44:14;;;;;;;7.03;6.33;;;12.40;99.90;;;;;;5072794;28;20052;-78
2022/07/04 02:46:39;;;;;;;8.10;6.40;;;12.50;99.90;;;;;;5056488;28;20124;-80
2022/07/04 02:49:05;;;;;;;6.43;5.83;;;12.40;99.90;;;;;;5056678;28;20109;-79
2022/07/04 02:51:31;;;;;;;6.03;5.43;;;12.40;99.90;;;;;;5060174;28;20071;-80
2022/07/04 02:53:57;;;;;;;6.67;5.53;;;12.40;99.90;;;;;;5076502;28;21027;-80
2022/07/04 02:56:23;;;;;;;5.83;5.33;;;12.40;99.90;;;;;;5063255;28;20514;-80
2022/07/04 02:58:48;;;;;;;6.90;5.20;;;12.40;99.90;;;;;;5057735;28;20048;-80
2022/07/04 03:01:15;;;;;;;5.53;5.03;;;12.30;99.90;;;;;;5075523;28;20056;-79
2022/07/04 03:03:41;;;;;;;6.97;5.33;;;12.30;99.90;;;;;;5061425;28;20837;-81
2022/07/04 03:06:08;;;;;;;6.77;6.07;;;12.30;99.90;;;;;;5053216;28;20059;-79
2022/07/04 03:08:34;;;;;;;8.03;6.53;;;12.30;99.90;;;;;;5076384;28;20044;-79
2022/07/04 03:10:59;;;;;;;9.03;6.83;;;12.30;99.90;;;;;;5068129;28;20109;-79
2022/07/04 03:13:25;;;;;;;7.83;6.30;;;12.30;99.90;;;;;;5060881;28;20065;-79
2022/07/04 03:15:51;;;;;;;6.73;5.90;;;12.30;99.90;;;;;;5056228;28;20075;-80
2022/07/04 03:18:18;;;;;;;8.93;6.63;;;12.30;99.90;;;;;;5067556;28;20535;-79
2022/07/04 03:20:44;;;;;;;8.87;6.70;;;12.30;99.90;;;;;;5077312;28;20056;-79
2022/07/04 03:23:09;;;;;;;6.90;6.20;;;12.30;99.90;;;;;;5075717;28;20437;-79
2022/07/04 03:25:35;;;;;;;7.53;6.67;;;12.30;99.90;;;;;;5058939;28;20040;-79
2022/07/04 03:28:01;;;;;;;8.50;6.57;;;12.30;99.90;;;;;;5049230;28;20631;-79
2022/07/04 03:30:27;;;;;;;8.80;7.27;;;12.40;99.90;;;;;;5074048;28;20052;-80
2022/07/04 03:32:53;;;;;;;10.63;7.40;;;12.40;99.90;;;;;;5071691;28;20059;-79
2022/07/04 03:35:19;;;;;;;11.37;7.83;;;12.40;99.90;;;;;;5076404;28;20057;-79
2022/07/04 03:37:45;;;;;;;8.97;7.90;;;12.40;99.90;;;;;;5075724;28;20041;-79
2022/07/04 03:40:11;;;;;;;9.10;7.97;;;12.40;99.90;;;;;;5076172;28;20044;-79
2022/07/04 03:42:36;;;;;;;8.90;7.30;;;12.40;99.90;;;;;;5077424;28;20052;-79
2022/07/04 03:45:03;;;;;;;9.87;8.23;;;12.50;99.90;;;;;;5075170;28;20056;-78
2022/07/04 03:47:29;;;;;;;10.67;8.80;;;12.50;99.90;;;;;;5068349;28;20056;-79
2022/07/04 03:49:55;;;;;;;11.23;8.77;;;12.50;99.90;;;;;;5076281;28;20486;-79
2022/07/04 03:52:20;;;;;;;12.90;8.67;;;12.60;99.90;;;;;;5070141;28;20045;-79
2022/07/04 03:54:46;;;;;;;8.10;7.30;;;12.60;99.90;;;;;;5076485;28;20045;-79
2022/07/04 03:57:11;;;;;;;11.47;8.40;;;12.60;99.90;;;;;;5059229;28;20055;-79
2022/07/04 03:59:37;;;;;;;10.07;7.80;;;12.60;99.90;;;;;;5054676;28;20178;-80
2022/07/04 04:02:03;;;;;;;11.27;8.37;;;12.70;99.90;;;;;;5074877;28;20220;-80
2022/07/04 04:07:13;;;;;;;10.53;8.23;;;12.70;99.90;;;;;;5066223;28;20045;-83
2022/07/04 04:09:39;;;;;;;11.20;8.73;;;12.70;99.90;;;;;;5065884;28;20109;-81
2022/07/04 04:12:05;;;;;;;9.03;8.13;;;12.70;99.90;;;;;;5074849;28;20052;-82
2022/07/04 04:14:30;;;;;;;12.13;8.70;;;12.70;99.90;;;;;;5074855;28;20138;-83
2022/07/04 04:16:56;;;;;;;10.50;8.50;;;12.70;99.90;;;;;;5074768;28;20084;-84
2022/07/04 04:19:22;;;;;;;11.17;9.53;;;12.80;99.90;;;;;;5055079;28;20045;-84
2022/07/04 04:21:48;;;;;;;12.27;9.27;;;12.80;99.90;;;;;;5063475;28;20264;-84
2022/07/04 04:24:13;;;;;;;10.47;9.27;;;12.80;99.90;;;;;;5074789;28;20549;-85
2022/07/04 04:26:39;;;;;;;10.83;9.73;;;12.80;99.90;;;;;;5015579;28;20110;-84
2022/07/04 04:29:05;;;;;;;10.63;9.30;;;12.80;99.90;;;;;;5059280;28;20404;-85
2022/07/04 04:31:30;;;;;;;11.70;9.53;;;12.90;99.90;;;;;;5058615;28;20054;-87
2022/07/04 04:33:57;;;;;;;13.80;10.17;;;12.90;99.90;;;;;;5059353;28;20055;-85
2022/07/04 04:36:23;;;;;;;11.47;9.57;;;12.90;99.90;;;;;;5063803;28;20079;-83
2022/07/04 04:38:48;;;;;;;13.07;10.23;;;12.90;99.90;;;;;;5054681;28;20060;-85
2022/07/04 04:41:16;;;;;;;11.87;10.13;;;12.90;99.90;;;;;;5051356;28;20064;-84
2022/07/04 04:43:42;;;;;;;12.93;10.47;;;13.00;99.90;;;;;;5038186;28;20033;-83
2022/07/04 04:46:07;;;;;;;13.90;10.87;;;13.10;99.90;;;;;;5048115;28;20055;-83
2022/07/04 04:48:33;;;;;;;14.43;10.37;;;13.10;99.90;;;;;;5072444;28;20041;-83
2022/07/04 04:50:59;;;;;;;13.33;11.00;;;13.10;99.90;;;;;;5057728;28;20044;-83
2022/07/04 04:53:25;;;;;;;14.33;11.10;;;13.20;99.90;;;;;;5065517;28;20104;-84
2022/07/04 04:55:54;;;;;;;15.47;12.17;;;13.30;99.90;;;;;;5075024;28;20076;-83
2022/07/04 04:58:21;;;;;;;14.63;12.10;;;13.40;99.90;;;;;;5074801;28;20048;-82
2022/07/04 05:00:49;;;;;;;16.73;13.13;;;13.40;99.90;;;;;;5075442;28;20087;-84
2022/07/04 05:03:15;;;;;;;19.40;14.17;;;13.50;99.90;;;;;;5074895;28;20044;-83
2022/07/04 05:05:41;;;;;;;21.20;13.87;;;13.50;99.90;;;;;;5074810;28;20064;-82
2022/07/04 05:08:07;;;;;;;17.20;14.17;;;13.60;99.90;;;;;;5070842;28;20045;-84
2022/07/04 05:10:33;;;;;;;19.43;14.90;;;13.70;99.90;;;;;;5023082;28;20058;-83
2022/07/04 05:12:59;;;;;;;18.93;16.33;;;13.80;99.90;;;;;;5056864;28;20045;-86
2022/07/04 05:15:24;;;;;;;22.07;15.23;;;13.80;99.90;;;;;;5069137;28;20048;-82
2022/07/04 05:17:50;;;;;;;19.83;14.67;;;13.80;99.90;;;;;;5068632;28;20100;-81
2022/07/04 05:20:16;;;;;;;21.93;15.07;;;13.80;99.90;;;;;;5057203;28;20101;-78
2022/07/04 05:22:42;;;;;;;22.02;15.23;;;13.90;99.90;;;;;;5067553;28;20048;-78
2022/07/04 05:25:08;;;;;;;20.80;13.77;;;13.90;99.90;;;;;;5068257;28;20048;-80
2022/07/04 05:27:34;;;;;;;21.43;14.30;;;13.90;99.90;;;;;;5065276;28;20056;-80
2022/07/04 05:29:59;;;;;;;18.03;14.07;;;14.00;99.90;;;;;;5041130;28;20061;-80
2022/07/04 05:32:25;;;;;;;19.65;14.52;;;14.00;99.90;;;;;;5038846;28;20060;-80
2022/07/04 05:34:51;;;;;;;20.60;13.93;;;14.10;99.90;;;;;;5056400;28;20056;-81
2022/07/04 05:37:17;;;;;;;22.27;15.37;;;14.10;99.90;;;;;;5064247;28;20108;-81
2022/07/04 05:39:43;;;;;;;21.40;14.55;;;14.20;99.90;;;;;;5050650;28;20048;-81
2022/07/04 05:42:09;;;;;;;17.13;13.65;;;14.30;99.90;;;;;;5073675;28;20590;-81
2022/07/04 05:44:34;;;;;;;15.63;13.68;;;14.40;99.90;;;;;;5066612;28;20048;-87
2022/07/04 05:47:00;;;;;;;16.58;13.43;;;14.40;99.90;;;;;;5042793;28;20064;-85
2022/07/04 05:49:26;;;;;;;20.15;13.70;;;14.60;99.90;;;;;;5062547;28;20040;-86
2022/07/04 05:51:52;;;;;;;22.95;13.30;;;14.60;99.90;;;;;;5060459;28;20516;-87
2022/07/04 05:54:17;;;;;;;18.42;13.32;;;14.70;99.90;;;;;;5037032;28;20045;-86
2022/07/04 05:56:43;;;;;;;17.80;12.93;;;14.90;99.90;;;;;;5015984;28;20044;-85
2022/07/04 05:59:09;;;;;;;15.98;12.05;;;15.00;99.90;;;;;;5064031;28;20040;-87
2022/07/04 06:01:36;;;;;;;14.70;11.32;;;15.10;99.90;;;;;;5064769;28;20121;-86
2022/07/04 06:04:05;;;;;;;15.43;12.07;;;15.20;99.90;;;;;;5048733;28;20132;-87
2022/07/04 06:06:32;;;;;;;18.42;12.32;;;15.40;99.90;;;;;;5060544;28;20048;-86
2022/07/04 06:08:58;;;;;;;18.40;11.80;;;15.60;99.90;;;;;;5060189;28;20044;-89
2022/07/04 06:11:24;;;;;;;17.65;12.00;;;15.70;99.90;;;;;;5035376;28;20082;-86
2022/07/04 06:13:50;;;;;;;14.15;11.13;;;15.90;99.90;;;;;;5061053;28;20048;-86
2022/07/04 06:16:16;;;;;;;17.00;11.38;;;16.00;99.90;;;;;;5046097;28;20051;-87
2022/07/04 06:18:43;;;;;;;16.67;11.63;;;16.20;99.90;;;;;;5064990;28;20394;-87
2022/07/04 06:21:09;;;;;;;13.35;9.90;;;16.30;99.90;;;;;;5050954;28;20059;-87
2022/07/04 06:23:35;;;;;;;13.80;10.50;;;16.50;99.90;;;;;;5054134;28;20114;-89
2022/07/04 06:26:02;;;;;;;12.40;9.52;;;16.70;99.90;;;;;;5073124;28;20091;-87
2022/07/04 06:28:28;;;;;;;15.38;9.05;;;16.80;99.90;;;;;;5072648;28;20040;-89
2022/07/04 06:30:53;;;;;;;13.15;8.27;;;16.70;99.90;;;;;;5036322;28;20175;-87
2022/07/04 06:33:19;;;;;;;9.85;8.00;;;16.70;99.90;;;;;;5055945;28;20112;-88
2022/07/04 06:35:45;;;;;;;14.70;7.20;;;16.70;99.90;;;;;;5038879;28;20496;-87
2022/07/04 06:38:22;;;;;;;8.00;6.25;;;16.70;99.90;;;;;;5072361;28;20059;-88
2022/07/04 06:40:54;;;;;;;8.70;5.95;;;16.60;99.90;;;;;;5055631;28;20109;-90
2022/07/04 06:43:19;;;;;;;8.82;5.78;;;16.50;99.90;;;;;;5072706;28;20049;-87
2022/07/04 06:45:45;;;;;;;8.07;5.80;;;16.50;99.90;;;;;;5055988;28;20120;-87
2022/07/04 06:48:11;;;;;;;8.52;5.90;;;16.60;99.90;;;;;;5055043;28;20040;-86
2022/07/04 06:50:37;;;;;;;10.77;5.97;;;16.90;99.90;;;;;;5056306;28;20040;-85
2022/07/04 06:53:06;;;;;;;7.45;6.20;;;17.10;99.90;;;;;;5055348;28;20052;-85
2022/07/04 06:55:32;;;;;;;10.70;6.70;;;17.20;99.90;;;;;;5055967;28;20189;-86
2022/07/04 06:57:58;;;;;;;13.68;7.60;;;17.30;99.90;;;;;;5055326;28;20050;-82
2022/07/04 07:00:24;;;;;;;11.13;7.43;;;17.50;99.90;;;;;;5055806;28;20075;-86
2022/07/04 07:02:49;;;;;;;10.32;7.13;;;17.70;99.90;;;;;;5071670;28;20587;-86
2022/07/04 07:05:15;;;;;;;9.05;6.95;;;17.80;99.90;;;;;;5055917;28;20156;-86
2022/07/04 07:07:41;;;;;;;12.27;7.22;;;17.90;99.90;;;;;;5072773;28;20044;-86
2022/07/04 07:10:07;;;;;;;10.15;7.55;;;17.90;99.90;;;;;;5061506;28;20045;-87
2022/07/04 07:12:34;;;;;;;11.85;7.80;;;18.00;99.90;;;;;;5043853;28;20551;-87
2022/07/04 07:15:00;;;;;;;11.88;7.28;;;18.20;99.90;;;;;;5071266;28;20049;-84
2022/07/04 07:17:27;;;;;;;10.20;6.60;;;18.20;99.90;;;;;;5062453;28;20104;-86
2022/07/04 07:19:52;;;;;;;7.93;5.88;;;18.30;99.90;;;;;;5063035;28;20595;-86
2022/07/04 07:22:18;;;;;;;9.25;5.88;;;18.50;99.90;;;;;;5047679;28;20045;-85
2022/07/04 07:24:44;;;;;;;10.63;5.85;;;18.60;99.90;;;;;;5055313;28;20166;-86
2022/07/04 07:27:10;;;;;;;8.23;5.68;;;18.70;99.90;;;;;;5062018;28;20112;-87
2022/07/04 07:29:37;;;;;;;10.80;6.05;;;18.70;99.90;;;;;;5034602;28;20049;-87
2022/07/04 07:32:04;;;;;;;10.20;6.00;;;18.60;99.90;;;;;;5056854;28;20067;-87
2022/07/04 07:34:30;;;;;;;10.82;5.93;;;18.60;99.90;;;;;;5069314;28;20106;-86
2022/07/04 07:36:55;;;;;;;10.88;5.90;;;18.60;99.90;;;;;;5073469;28;20052;-87
2022/07/04 07:39:21;;;;;;;9.98;5.32;;;18.70;99.90;;;;;;5042370;28;20389;-87
2022/07/04 07:41:47;;;;;;;9.52;5.82;;;18.60;99.90;;;;;;5051498;28;20123;-87
2022/07/04 07:44:13;;;;;;;11.63;6.20;;;18.60;99.90;;;;;;5058388;28;20319;-87
2022/07/04 07:46:39;;;;;;;11.77;5.88;;;18.50;99.90;;;;;;5075763;28;20044;-88
2022/07/04 07:49:05;;;;;;;11.65;5.32;;;18.60;99.90;;;;;;5056927;28;20044;-89
2022/07/04 07:51:31;;;;;;;9.85;5.82;;;18.60;99.90;;;;;;5039759;28;20179;-89
2022/07/04 07:53:57;;;;;;;9.48;5.72;;;18.60;99.90;;;;;;5021590;28;20029;-88
2022/07/04 07:56:23;;;;;;;9.73;5.60;;;18.60;99.90;;;;;;5036297;28;20060;-88
2022/07/04 07:58:49;;;;;;;11.10;5.70;;;18.70;99.90;;;;;;5053929;28;20063;-85
2022/07/04 08:01:15;;;;;;;9.27;5.88;;;18.90;99.90;;;;;;5021417;28;20048;-84
2022/07/04 08:06:25;;;;;;;12.85;5.28;;;19.10;99.90;;;;;;5076518;28;20064;-80
2022/07/04 08:08:50;;;;;;;10.25;5.13;;;19.00;99.90;;;;;;5062283;28;20059;-84
2022/07/04 08:11:16;;;;;;;10.25;4.82;;;19.00;99.90;;;;;;5057945;28;20056;-84
2022/07/04 08:13:42;;;;;;;9.82;4.25;;;19.30;99.90;;;;;;5054037;28;20051;-84
2022/07/04 08:16:08;;;;;;;9.32;4.75;;;19.40;99.90;;;;;;5075345;28;20391;-84
2022/07/04 08:18:34;;;;;;;10.15;4.80;;;19.70;99.90;;;;;;5057745;28;20051;-82
2022/07/04 08:21:01;;;;;;;9.05;5.00;;;19.70;99.90;;;;;;5055742;28;20048;-81
2022/07/04 08:23:28;;;;;;;7.97;4.88;;;19.60;99.90;;;;;;5056295;28;20032;-82
2022/07/04 08:25:54;;;;;;;8.55;5.15;;;19.30;99.90;;;;;;5068768;28;20055;-84
2022/07/04 08:28:19;;;;;;;5.80;4.40;;;19.10;99.90;;;;;;5068585;28;20048;-83
2022/07/04 08:30:45;;;;;;;8.27;4.78;;;18.90;99.90;;;;;;5050828;28;20040;-82
2022/07/04 08:33:11;;;;;;;9.35;4.20;;;18.70;99.90;;;;;;5039085;28;20049;-83
2022/07/04 08:35:38;;;;;;;8.68;3.80;;;18.60;99.90;;;;;;5057496;28;20106;-83
2022/07/04 08:38:04;;;;;;;10.10;3.70;;;18.50;99.90;;;;;;5021827;28;20052;-83
2022/07/04 08:40:31;;;;;;;5.55;3.45;;;18.50;99.90;;;;;;5034146;28;20037;-83
2022/07/04 08:42:57;;;;;;;7.18;3.90;;;18.90;99.90;;;;;;5056770;28;20411;-81
2022/07/04 08:45:27;;;;;;;5.07;4.10;;;19.20;99.90;;;;;;5055084;28;20056;-83
2022/07/04 08:48:01;;;;;;;9.55;4.22;;;19.40;99.90;;;;;;5073558;28;20125;-82
2022/07/04 08:50:30;;;;;;;12.98;4.30;;;19.70;99.90;;;;;;5056743;28;20577;-83
2022/07/04 08:53:00;;;;;;;6.78;3.20;;;20.00;99.90;;;;;;5070805;28;20070;-83
2022/07/04 08:58:30;;;;;;;6.05;2.58;;;20.40;99.90;;;;;;5059764;28;20091;-82
2022/07/04 09:01:01;;;;;;;5.60;2.55;;;20.60;99.90;;;;;;5031906;28;20036;-83
2022/07/04 09:03:28;;;;;;;7.15;2.58;;;20.80;99.90;;;;;;5055313;28;20037;-82
2022/07/04 09:05:55;;;;;;;7.70;2.70;;;20.90;99.90;;;;;;5056255;28;20473;-83
2022/07/04 09:08:21;;;;;;;4.32;2.55;;;20.90;99.90;;;;;;5057877;28;20036;-83
2022/07/04 09:10:48;;;;;;;3.20;2.00;;;21.00;99.90;;;;;;5073474;28;20044;-82
2022/07/04 09:13:14;;;;;;;4.18;2.13;;;21.10;99.90;;;;;;5020429;28;20037;-83
2022/07/04 09:15:42;;;;;;;8.05;2.00;;;21.30;99.90;;;;;;5055732;28;20048;-82
2022/07/04 09:18:20;;;;;;;2.92;1.75;;;21.30;99.90;;;;;;5067880;28;20113;-82
2022/07/04 09:20:46;;;;;;;5.30;2.15;;;21.50;99.90;;;;;;5057512;28;20338;-83
2022/07/04 09:23:28;;;;;;;3.20;1.80;;;21.50;99.90;;;;;;5055816;28;20057;-84
2022/07/04 09:26:20;;;;;;;7.10;2.30;;;21.40;99.90;;;;;;5047288;28;20203;-82
2022/07/04 09:28:54;;;;;;;4.32;1.90;;;21.10;99.90;;;;;;5040506;28;20389;-83
2022/07/04 09:31:22;;;;;;;2.95;1.92;;;20.90;99.90;;;;;;5056421;28;20045;-83
2022/07/04 09:33:54;;;;;;;4.03;1.80;;;20.80;99.90;;;;;;5063078;28;20055;-82
2022/07/04 09:36:25;;;;;;;3.80;1.77;;;21.00;99.90;;;;;;5054373;28;20052;-82
2022/07/04 09:39:14;;;;;;;4.05;1.90;;;21.10;99.90;;;;;;5065546;28;20052;-84
2022/07/04 09:42:01;;;;;;;6.82;2.03;;;20.90;99.90;;;;;;5047389;28;20571;-83
2022/07/04 09:44:42;;;;;;;3.42;1.70;;;20.70;99.90;;;;;;5066517;28;20056;-84
2022/07/04 09:47:24;;;;;;;4.72;2.05;;;20.40;99.90;;;;;;5055729;28;20511;-83
2022/07/04 09:50:08;;;;;;;2.67;2.00;;;20.10;99.90;;;;;;5041335;28;20048;-83
2022/07/04 09:52:49;;;;;;;2.20;1.80;;;19.80;99.90;;;;;;5052817;28;20041;-83
2022/07/04 09:55:30;;;;;;;2.13;1.77;;;19.60;99.90;;;;;;5067810;28;20041;-83
2022/07/04 09:57:59;;;;;;;2.75;1.65;;;19.90;99.90;;;;;;5053277;28;20074;-83
2022/07/04 10:00:27;;;;;;;4.65;2.15;;;20.40;99.90;;;;;;5056114;28;20094;-84
2022/07/04 10:02:54;;;;;;;4.15;2.10;;;20.70;99.90;;;;;;5053305;28;20048;-84
2022/07/04 10:05:26;;;;;;;4.93;2.40;;;20.80;99.90;;;;;;5055007;28;20063;-83
2022/07/04 10:07:53;;;;;;;1.65;1.55;;;20.70;99.90;;;;;;5059328;28;20150;-83
2022/07/04 10:10:29;;;;;;;2.53;1.45;;;20.80;99.90;;;;;;5072180;28;20051;-83
2022/07/04 10:13:00;;;;;;;2.80;1.42;;;20.70;99.90;;;;;;5068213;28;20041;-83
2022/07/04 10:15:26;;;;;;;3.28;1.30;;;20.60;99.90;;;;;;5036494;28;20076;-83
2022/07/04 10:17:52;;;;;;;2.00;1.45;;;20.90;99.90;;;;;;5039409;28;20036;-84
2022/07/04 10:20:18;;;;;;;2.80;1.90;;;21.00;99.90;;;;;;5072790;28;20048;-83
2022/07/04 10:22:43;;;;;;;4.00;2.40;;;21.30;99.90;;;;;;5048682;28;20512;-84
2022/07/04 10:25:10;;;;;;;3.00;1.70;;;21.60;99.90;;;;;;5056038;28;20064;-84
2022/07/04 10:27:37;;;;;;;2.85;1.48;;;21.60;99.90;;;;;;5055339;28;20114;-83
2022/07/04 10:30:06;;;;;;;2.22;1.40;;;21.60;99.90;;;;;;5039637;28;20076;-82
2022/07/04 10:32:32;;;;;;;3.22;1.60;;;21.70;99.90;;;;;;5047927;28;20052;-82
2022/07/04 10:34:59;;;;;;;3.00;1.30;;;21.80;99.90;;;;;;5072811;28;20056;-82
2022/07/04 10:37:26;;;;;;;1.50;1.40;;;22.20;99.90;;;;;;5036925;28;20044;-82
2022/07/04 10:39:52;;;;;;;3.10;1.80;;;22.40;99.90;;;;;;5032154;28;20923;-82
2022/07/04 10:42:25;;;;;;;4.30;1.67;;;22.50;99.90;;;;;;5039337;28;20056;-83
2022/07/04 10:44:52;;;;;;;5.47;2.03;;;22.60;99.90;;;;;;5054373;28;20044;-83
2022/07/04 10:47:29;;;;;;;3.85;1.90;;;22.50;99.90;;;;;;5021206;28;20076;-83
2022/07/04 10:49:56;;;;;;;2.72;1.50;;;22.20;99.90;;;;;;5036217;28;20405;-83
2022/07/04 10:52:22;;;;;;;3.13;1.63;;;22.10;99.90;;;;;;5048792;28;20049;-82
2022/07/04 10:54:47;;;;;;;2.05;1.67;;;22.00;99.90;;;;;;5049501;28;20603;-83
2022/07/04 10:57:22;;;;;;;3.95;1.40;;;21.80;99.90;;;;;;5038948;28;20048;-83
2022/07/04 10:59:57;;;;;;;2.88;1.50;;;21.90;99.90;;;;;;5071892;28;20516;-83
2022/07/04 11:02:32;;;;;;;3.35;1.67;;;22.20;99.90;;;;;;5039796;28;20508;-84
2022/07/04 11:05:00;;;;;;;4.40;1.70;;;22.10;99.90;;;;;;5053013;28;20056;-83
2022/07/04 11:07:35;;;;;;;4.03;1.80;;;22.00;99.90;;;;;;5072798;28;20093;-82
2022/07/04 11:12:56;;;;;;;2.15;1.65;;;22.30;99.90;;;;;;5074650;28;20060;-84
2022/07/04 11:15:28;;;;;;;2.45;1.50;;;22.50;99.90;;;;;;5058946;28;20052;-83
2022/07/04 11:17:57;;;;;;;3.72;1.85;;;22.60;99.90;;;;;;5059104;28;20056;-84
2022/07/04 11:20:25;;;;;;;4.45;1.80;;;22.80;99.90;;;;;;5059897;28;20659;-83
2022/07/04 11:22:51;;;;;;;2.80;1.50;;;22.90;99.90;;;;;;5075331;28;20378;-84
2022/07/04 11:25:17;;;;;;;2.50;1.73;;;23.00;99.90;;;;;;5059280;28;20063;-83
2022/07/04 11:27:43;;;;;;;1.90;1.70;;;22.70;99.90;;;;;;5038522;28;20051;-83
2022/07/04 11:30:10;;;;;;;3.53;1.70;;;22.70;99.90;;;;;;5030342;28;20561;-83
2022/07/04 11:32:38;;;;;;;4.28;2.03;;;22.70;99.90;;;;;;5022465;28;20056;-82
2022/07/04 11:35:05;;;;;;;3.63;1.90;;;22.90;99.90;;;;;;5059121;28;20053;-82
2022/07/04 11:37:32;;;;;;;1.90;1.80;;;23.00;99.90;;;;;;5059221;28;20220;-82
2022/07/04 11:45:02;;;;;;;2.83;1.80;;;22.60;99.90;;;;;;5058538;28;20040;-83
2022/07/04 11:45:47;;;;;;;1.80;1.70;;;22.50;99.90;;;;;;5064881;28;20044;-84
2022/07/04 11:48:27;;;;;;;2.05;1.67;;;22.50;99.90;;;;;;5075575;28;20055;-84
2022/07/04 11:50:54;;;;;;;2.53;1.80;;;22.50;99.90;;;;;;5040438;28;20446;-82
2022/07/04 11:53:20;;;;;;;2.78;1.50;;;22.20;99.90;;;;;;5034931;28;20048;-84
2022/07/04 11:55:57;;;;;;;2.55;1.60;;;21.90;99.90;;;;;;5050611;28;20462;-84
2022/07/04 11:58:42;;;;;;;2.00;1.55;;;21.70;99.90;;;;;;5060139;28;20553;-84
2022/07/04 12:01:09;;;;;;;3.67;1.80;;;21.40;99.90;;;;;;5057629;28;20067;-84
2022/07/04 12:03:35;;;;;;;2.13;1.60;;;21.60;99.90;;;;;;5057829;28;20064;-83
2022/07/04 12:06:03;;;;;;;3.67;1.48;;;21.90;99.90;;;;;;5054030;28;20424;-83
2022/07/04 12:08:29;;;;;;;2.03;1.52;;;22.30;99.90;;;;;;5073487;28;20534;-84
2022/07/04 12:10:55;;;;;;;3.03;1.83;;;22.60;99.90;;;;;;5074406;28;20044;-84
2022/07/04 12:13:20;;;;;;;3.15;1.40;;;22.70;99.90;;;;;;5057612;28;20040;-83
2022/07/04 12:15:56;;;;;;;1.63;1.42;;;23.00;99.90;;;;;;5074911;28;20048;-84
2022/07/04 12:18:23;;;;;;;2.42;1.65;;;23.00;99.90;;;;;;5071937;28;20463;-84
2022/07/04 12:20:51;;;;;;;1.42;1.30;;;22.90;99.90;;;;;;5071376;28;20355;-83
2022/07/04 12:23:22;;;;;;;1.58;1.33;;;22.70;99.90;;;;;;5072460;28;20054;-84
2022/07/04 12:25:50;;;;;;;3.70;1.63;;;22.60;99.90;;;;;;5058451;28;20104;-83
2022/07/04 12:28:17;;;;;;;1.60;1.40;;;22.80;99.90;;;;;;5057382;28;20052;-83
2022/07/04 12:30:57;;;;;;;1.80;1.42;;;23.00;99.90;;;;;;5041089;28;20076;-83
2022/07/04 12:33:29;;;;;;;4.47;1.80;;;23.10;99.90;;;;;;5056958;28;20095;-83
2022/07/04 12:35:56;;;;;;;;;;;23.20;99.90;;;;;;5040508;28;20229;-82
2022/07/04 12:38:27;;;;;;;3.35;1.27;;;23.20;98.90;;;;;;5074596;28;20418;-83
2022/07/04 12:40:53;;;;;;;;;;;23.30;97.30;;;;;;5056663;28;20044;-82
2022/07/04 12:43:19;;;;;;;1.13;1.02;;;23.20;93.40;;;;;;5074358;28;19924;-84
2022/07/04 12:45:54;;;;;;;2.83;1.30;;;23.20;98.70;;;;;;5057214;28;20116;-84
2022/07/04 12:48:28;;;;;;;1.30;1.20;;;23.00;98.00;;;;;;5070009;28;20071;-83
2022/07/04 12:51:10;;;;;;;2.03;1.30;;;22.80;97.20;;;;;;5057058;28;20083;-83
2022/07/04 12:53:37;;;;;;;1.83;1.13;;;22.80;97.70;;;;;;5063208;28;20075;-84
2022/07/04 12:56:03;;;;;;;1.52;1.30;;;22.80;94.70;;;;;;5056680;28;20058;-83
2022/07/04 12:58:29;;;;;;;2.30;1.10;;;22.90;94.90;;;;;;5039378;28;20044;-83
2022/07/04 13:00:55;;;;;;;3.85;1.10;;;23.10;94.80;;;;;;5072994;28;20094;-81
2022/07/04 13:03:20;;;;;;;2.38;1.33;;;23.10;93.20;;;;;;5039403;28;20059;-83